Time;durP1;ratioP1;P1;durP2;ratioP2;P2;SDS_P1;SDS_P2;PMS_P1;PMS_P2;Temp;Humidity;BMP_temperature;BMP_pressure;BME280_temperature;BME280_humidity;BME280_pressure;Samples;Min_cycle;Max_cycle;Signal;HPM_P1;HPM_P2
2021/10/22 00:01:55;;;;;;;2.05;0.40;;;10.30;89.70;;;;;;5113132;28;20098;-76
2021/10/22 00:04:20;;;;;;;1.30;0.50;;;10.20;89.30;;;;;;5112799;28;20024;-77
2021/10/22 00:06:46;;;;;;;0.30;0.30;;;10.10;88.70;;;;;;5113180;28;20036;-78
2021/10/22 00:09:11;;;;;;;1.50;0.57;;;10.20;89.10;;;;;;5095026;28;20532;-78
2021/10/22 00:11:43;;;;;;;0.55;0.30;;;10.10;89.00;;;;;;5094899;28;20063;-77
2021/10/22 00:14:10;;;;;;;1.30;0.30;;;10.00;88.30;;;;;;5113357;28;20494;-77
2021/10/22 00:16:36;;;;;;;1.30;0.38;;;10.00;88.10;;;;;;5094195;28;20061;-77
2021/10/22 00:19:01;;;;;;;1.00;0.30;;;9.90;88.10;;;;;;5113594;28;20028;-77
2021/10/22 00:21:27;;;;;;;1.55;0.35;;;9.90;88.60;;;;;;5095163;28;20027;-77
2021/10/22 00:23:53;;;;;;;1.90;0.30;;;9.90;88.70;;;;;;5094818;28;20383;-77
2021/10/22 00:26:18;;;;;;;0.35;0.20;;;10.00;88.90;;;;;;5112886;28;20380;-77
2021/10/22 00:28:44;;;;;;;1.85;0.20;;;10.00;88.70;;;;;;5113216;28;20495;-77
2021/10/22 00:31:11;;;;;;;0.68;0.40;;;10.10;88.40;;;;;;5113014;28;20036;-77
2021/10/22 00:33:38;;;;;;;0.47;0.40;;;10.20;88.20;;;;;;5113865;28;20015;-77
2021/10/22 00:36:06;;;;;;;0.35;0.25;;;10.30;88.10;;;;;;5095587;28;20090;-77
2021/10/22 00:38:31;;;;;;;0.80;0.20;;;10.30;87.10;;;;;;5113618;28;20024;-77
2021/10/22 00:40:57;;;;;;;1.00;0.30;;;10.30;86.90;;;;;;5113604;28;20031;-77
2021/10/22 00:43:23;;;;;;;2.80;0.70;;;10.30;87.10;;;;;;5113742;28;20042;-76
2021/10/22 00:45:52;;;;;;;1.67;0.47;;;10.30;86.50;;;;;;5113376;28;20019;-77
2021/10/22 00:48:19;;;;;;;1.48;0.50;;;10.20;86.40;;;;;;5113193;28;20028;-76
2021/10/22 00:50:49;;;;;;;0.52;0.20;;;10.20;86.60;;;;;;5097804;28;20032;-77
2021/10/22 00:53:14;;;;;;;0.10;0.10;;;10.30;86.80;;;;;;5112966;28;20054;-77
2021/10/22 00:55:40;;;;;;;1.95;0.30;;;10.30;86.60;;;;;;5094575;28;20107;-77
2021/10/22 00:58:06;;;;;;;0.35;0.30;;;10.20;86.20;;;;;;5112622;28;20024;-77
2021/10/22 01:00:31;;;;;;;0.80;0.20;;;10.10;86.30;;;;;;5112558;28;20055;-77
2021/10/22 01:02:58;;;;;;;0.82;0.30;;;10.00;86.70;;;;;;5094625;28;20107;-78
2021/10/22 01:05:24;;;;;;;1.30;0.30;;;10.00;87.00;;;;;;5112714;28;20081;-77
2021/10/22 01:07:50;;;;;;;0.30;0.20;;;10.10;87.10;;;;;;5113056;28;20518;-77
2021/10/22 01:10:17;;;;;;;2.33;0.40;;;10.20;87.00;;;;;;5094760;28;20067;-77
2021/10/22 01:12:43;;;;;;;0.25;0.20;;;10.20;86.60;;;;;;5113263;28;20020;-78
2021/10/22 01:15:09;;;;;;;1.52;0.40;;;10.30;86.30;;;;;;5094812;28;20031;-78
2021/10/22 01:17:37;;;;;;;1.15;0.47;;;10.20;86.30;;;;;;5112909;28;20019;-77
2021/10/22 01:20:08;;;;;;;1.92;0.60;;;10.10;86.50;;;;;;5112950;28;20024;-77
2021/10/22 01:22:34;;;;;;;0.63;0.40;;;10.10;87.90;;;;;;5107997;28;20483;-77
2021/10/22 01:25:01;;;;;;;0.77;0.60;;;10.10;86.90;;;;;;5112491;28;20483;-74
2021/10/22 01:27:28;;;;;;;0.90;0.57;;;9.90;84.20;;;;;;5094108;28;20400;-77
2021/10/22 01:29:56;;;;;;;1.90;0.73;;;9.70;84.20;;;;;;5097885;28;20039;-77
2021/10/22 01:32:22;;;;;;;2.08;0.50;;;9.70;84.70;;;;;;5115999;28;20012;-77
2021/10/22 01:34:48;;;;;;;1.83;0.40;;;9.70;84.80;;;;;;5115964;28;20224;-74
2021/10/22 01:37:15;;;;;;;0.47;0.47;;;9.60;83.90;;;;;;5097610;28;20496;-74
2021/10/22 01:39:41;;;;;;;1.20;0.60;;;9.50;84.20;;;;;;5097243;28;20019;-75
2021/10/22 01:42:07;;;;;;;1.42;0.47;;;9.50;84.20;;;;;;5115993;28;20031;-75
2021/10/22 01:44:34;;;;;;;0.95;0.40;;;9.40;84.40;;;;;;5097023;28;20472;-77
2021/10/22 01:46:59;;;;;;;0.93;0.50;;;9.20;85.50;;;;;;5115681;28;20031;-76
2021/10/22 01:49:25;;;;;;;2.42;0.65;;;9.20;85.60;;;;;;5097568;28;20080;-77
2021/10/22 01:51:51;;;;;;;0.93;0.50;;;9.00;86.20;;;;;;5115668;28;20043;-77
2021/10/22 01:54:17;;;;;;;2.65;0.70;;;9.00;86.50;;;;;;5097475;28;20023;-77
2021/10/22 01:56:43;;;;;;;1.38;0.70;;;9.00;86.80;;;;;;5115588;28;20517;-77
2021/10/22 01:59:09;;;;;;;2.53;0.85;;;8.90;87.40;;;;;;5115728;28;20032;-77
2021/10/22 02:01:35;;;;;;;4.25;1.10;;;8.90;88.10;;;;;;5115464;28;20435;-77
2021/10/22 02:04:00;;;;;;;0.70;0.70;;;8.90;88.20;;;;;;5115344;28;20055;-77
2021/10/22 02:06:26;;;;;;;1.67;0.95;;;9.10;88.10;;;;;;5115360;28;20069;-77
2021/10/22 02:08:51;;;;;;;1.90;0.90;;;9.00;87.80;;;;;;5115500;28;20031;-77
2021/10/22 02:11:17;;;;;;;2.35;1.42;;;8.90;88.20;;;;;;5115151;28;20051;-76
2021/10/22 02:13:44;;;;;;;1.67;1.02;;;9.00;88.10;;;;;;5115393;28;20614;-77
2021/10/22 02:16:09;;;;;;;2.63;1.23;;;9.00;87.80;;;;;;5115145;28;20046;-77
2021/10/22 02:18:35;;;;;;;2.15;1.13;;;9.00;87.50;;;;;;5115226;28;20456;-77
2021/10/22 02:21:01;;;;;;;1.40;1.13;;;9.00;87.60;;;;;;5096926;28;20019;-76
2021/10/22 02:23:26;;;;;;;1.83;1.50;;;9.10;87.90;;;;;;5114759;28;20426;-77
2021/10/22 02:25:52;;;;;;;2.08;1.50;;;9.10;87.30;;;;;;5096754;28;20043;-77
2021/10/22 02:28:17;;;;;;;3.60;1.95;;;9.20;86.90;;;;;;5114888;28;20027;-77
2021/10/22 02:30:43;;;;;;;2.83;1.30;;;9.20;86.40;;;;;;5114876;28;20042;-77
2021/10/22 02:33:10;;;;;;;2.75;1.10;;;9.20;85.50;;;;;;5096689;28;20415;-77
2021/10/22 02:35:36;;;;;;;3.50;1.10;;;9.20;84.80;;;;;;5114844;28;20078;-76
2021/10/22 02:38:02;;;;;;;2.03;0.90;;;9.20;84.80;;;;;;5096291;28;20024;-76
2021/10/22 02:40:28;;;;;;;1.35;0.90;;;9.20;84.70;;;;;;5113705;28;20028;-76
2021/10/22 02:42:53;;;;;;;1.98;1.10;;;9.20;84.30;;;;;;5114841;28;20023;-76
2021/10/22 02:45:19;;;;;;;1.75;0.98;;;9.20;84.30;;;;;;5114886;28;20027;-76
2021/10/22 02:47:45;;;;;;;2.40;0.95;;;9.20;84.10;;;;;;5114379;28;20027;-76
2021/10/22 02:50:11;;;;;;;2.53;0.60;;;9.20;83.70;;;;;;5096345;28;20046;-77
2021/10/22 02:52:36;;;;;;;2.58;0.95;;;9.20;83.70;;;;;;5114575;28;20027;-76
2021/10/22 02:55:07;;;;;;;3.22;0.90;;;9.10;83.30;;;;;;5079342;28;20028;-77
2021/10/22 02:57:33;;;;;;;2.33;0.63;;;8.90;83.90;;;;;;5114235;28;20016;-77
2021/10/22 02:59:59;;;;;;;4.32;0.85;;;8.80;84.50;;;;;;5095941;28;20119;-77
2021/10/22 03:02:25;;;;;;;1.05;0.80;;;8.70;85.40;;;;;;5114115;28;20022;-77
2021/10/22 03:04:50;;;;;;;1.75;0.73;;;8.60;85.60;;;;;;5096008;28;20028;-77
2021/10/22 03:07:16;;;;;;;5.15;0.80;;;8.60;85.70;;;;;;5095691;28;20468;-78
2021/10/22 03:09:42;;;;;;;2.50;0.93;;;8.60;85.80;;;;;;5095671;28;20118;-77
2021/10/22 03:12:07;;;;;;;3.95;0.90;;;8.60;85.50;;;;;;5113905;28;20028;-76
2021/10/22 03:14:33;;;;;;;3.60;0.73;;;8.50;85.90;;;;;;5114241;28;20031;-77
2021/10/22 03:16:59;;;;;;;1.80;0.93;;;8.50;85.90;;;;;;5095339;28;20020;-77
2021/10/22 03:19:25;;;;;;;1.00;0.68;;;8.50;85.90;;;;;;5114059;28;20024;-77
2021/10/22 03:21:51;;;;;;;2.20;0.90;;;8.50;85.70;;;;;;5095710;28;20077;-77
2021/10/22 03:24:17;;;;;;;2.97;1.40;;;8.60;85.90;;;;;;5114212;28;20024;-77
2021/10/22 03:26:42;;;;;;;3.72;0.98;;;8.60;85.70;;;;;;5113705;28;20051;-77
2021/10/22 03:29:08;;;;;;;3.42;1.05;;;8.60;85.40;;;;;;5113746;28;20115;-77
2021/10/22 03:31:35;;;;;;;2.30;1.02;;;8.60;85.10;;;;;;5113832;28;20051;-77
2021/10/22 03:34:00;;;;;;;2.40;1.08;;;8.50;85.70;;;;;;5113827;28;20076;-77
2021/10/22 03:36:26;;;;;;;1.98;1.13;;;8.60;85.70;;;;;;5095591;28;20036;-77
2021/10/22 03:38:52;;;;;;;4.75;0.93;;;8.60;85.60;;;;;;5095509;28;20131;-77
2021/10/22 03:41:17;;;;;;;2.25;1.23;;;8.70;85.80;;;;;;5113685;28;20028;-77
2021/10/22 03:43:43;;;;;;;2.67;1.00;;;8.70;85.90;;;;;;5113713;28;20031;-76
2021/10/22 03:46:09;;;;;;;2.20;1.15;;;8.70;85.50;;;;;;5113698;28;20527;-77
2021/10/22 03:48:35;;;;;;;6.97;1.40;;;8.80;85.30;;;;;;5113471;28;20028;-77
2021/10/22 03:51:00;;;;;;;3.05;1.20;;;8.80;85.30;;;;;;5113240;28;20035;-77
2021/10/22 03:53:26;;;;;;;2.63;1.00;;;8.80;84.70;;;;;;5113470;28;20498;-78
2021/10/22 03:55:53;;;;;;;3.28;1.17;;;8.80;84.00;;;;;;5113193;28;20391;-77
2021/10/22 03:58:20;;;;;;;2.83;0.73;;;8.60;84.20;;;;;;5113381;28;20019;-77
2021/10/22 04:00:46;;;;;;;2.13;1.10;;;8.50;84.10;;;;;;5113259;28;20104;-77
2021/10/22 04:03:13;;;;;;;1.38;1.05;;;8.50;84.50;;;;;;5113558;28;20020;-77
2021/10/22 04:05:38;;;;;;;1.42;0.70;;;8.60;84.60;;;;;;5095054;28;20552;-77
2021/10/22 04:08:04;;;;;;;1.60;0.90;;;8.70;84.80;;;;;;5113369;28;20024;-77
2021/10/22 04:10:30;;;;;;;2.78;1.40;;;8.70;84.30;;;;;;5113196;28;20498;-78
2021/10/22 04:12:56;;;;;;;4.90;1.55;;;8.70;84.00;;;;;;5113404;28;20028;-78
2021/10/22 04:15:22;;;;;;;2.80;1.58;;;8.70;84.00;;;;;;5113397;28;20085;-77
2021/10/22 04:17:50;;;;;;;5.70;2.45;;;8.80;84.10;;;;;;5113091;28;20464;-77
2021/10/22 04:20:15;;;;;;;5.20;1.80;;;8.70;84.10;;;;;;5113305;28;20074;-78
2021/10/22 04:22:41;;;;;;;3.33;1.73;;;8.70;84.30;;;;;;5113156;28;20020;-77
2021/10/22 04:25:08;;;;;;;4.50;1.95;;;8.70;84.30;;;;;;5095128;28;20035;-77
2021/10/22 04:27:35;;;;;;;3.00;1.40;;;8.60;84.20;;;;;;5094651;28;20030;-76
2021/10/22 04:30:03;;;;;;;7.88;2.35;;;8.60;84.70;;;;;;5095331;28;20027;-76
2021/10/22 04:32:29;;;;;;;9.70;2.95;;;8.70;84.70;;;;;;5095003;28;20027;-76
2021/10/22 04:34:55;;;;;;;4.05;2.35;;;8.70;84.30;;;;;;5112796;28;20506;-77
2021/10/22 04:37:32;;;;;;;3.47;1.85;;;8.70;84.30;;;;;;5094439;28;20028;-77
2021/10/22 04:42:46;;;;;;;7.57;3.38;;;8.70;84.10;;;;;;5083861;28;20141;-77
2021/10/22 04:45:13;;;;;;;11.88;5.50;;;8.70;84.20;;;;;;5094954;28;20045;-77
2021/10/22 04:47:39;;;;;;;9.82;3.65;;;8.70;84.30;;;;;;5094430;28;20070;-79
2021/10/22 04:50:07;;;;;;;20.05;6.88;;;8.70;83.90;;;;;;5094535;28;20163;-79
2021/10/22 04:52:34;;;;;;;30.92;9.30;;;8.50;83.90;;;;;;5112681;28;20020;-77
2021/10/22 04:55:01;;;;;;;19.73;8.02;;;8.40;84.60;;;;;;5112856;28;20074;-79
2021/10/22 04:57:27;;;;;;;23.70;7.90;;;8.50;84.80;;;;;;5112939;28;20019;-77
2021/10/22 04:59:52;;;;;;;16.80;5.80;;;8.50;84.90;;;;;;5094964;28;20422;-77
2021/10/22 05:02:18;;;;;;;12.63;5.20;;;8.50;84.40;;;;;;5094943;28;20036;-77
2021/10/22 05:04:44;;;;;;;17.15;5.85;;;8.50;84.40;;;;;;5116939;28;20144;-75
2021/10/22 05:07:10;;;;;;;18.25;5.85;;;8.50;84.30;;;;;;5098401;28;20055;-76
2021/10/22 05:09:37;;;;;;;21.08;6.43;;;8.50;84.20;;;;;;5116687;28;20499;-77
2021/10/22 05:12:06;;;;;;;27.95;8.68;;;8.40;84.30;;;;;;5116593;28;20260;-78
2021/10/22 05:14:37;;;;;;;26.08;8.93;;;8.40;84.60;;;;;;5116539;28;20015;-78
2021/10/22 05:17:04;;;;;;;13.38;5.85;;;8.50;84.40;;;;;;5098772;28;20038;-78
2021/10/22 05:19:30;;;;;;;7.75;3.85;;;8.50;84.30;;;;;;5098112;28;20126;-78
2021/10/22 05:21:56;;;;;;;9.80;2.83;;;8.60;84.30;;;;;;5098104;28;20486;-78
2021/10/22 05:24:23;;;;;;;5.25;2.55;;;8.60;84.50;;;;;;5118128;28;20031;-77
2021/10/22 05:26:49;;;;;;;5.65;2.20;;;8.60;84.00;;;;;;5087019;28;20032;-78
2021/10/22 05:29:15;;;;;;;5.82;2.05;;;8.60;83.80;;;;;;5125570;28;20062;-78
2021/10/22 05:31:42;;;;;;;6.32;2.38;;;8.60;83.70;;;;;;5132438;28;20036;-76
2021/10/22 05:34:08;;;;;;;7.35;1.75;;;8.60;83.80;;;;;;5138104;28;20035;-77
2021/10/22 05:36:35;;;;;;;6.63;2.67;;;8.60;83.50;;;;;;5140705;27;20031;-76
2021/10/22 05:39:01;;;;;;;5.47;2.05;;;8.70;83.00;;;;;;5141005;27;20012;-76
2021/10/22 05:41:26;;;;;;;4.45;2.13;;;8.70;82.90;;;;;;5123528;28;20056;-77
2021/10/22 05:43:54;;;;;;;8.07;3.65;;;8.70;83.10;;;;;;5140012;27;20036;-78
2021/10/22 05:46:19;;;;;;;4.93;2.70;;;8.70;83.40;;;;;;5106169;28;20037;-77
2021/10/22 05:48:48;;;;;;;3.97;2.25;;;8.70;83.00;;;;;;5140615;27;20019;-78
2021/10/22 05:51:15;;;;;;;5.43;2.38;;;8.70;83.20;;;;;;5123503;28;20043;-78
2021/10/22 05:53:40;;;;;;;7.90;2.42;;;8.60;82.50;;;;;;5129333;28;20015;-77
2021/10/22 05:56:09;;;;;;;9.68;2.88;;;8.60;82.20;;;;;;5128241;27;20032;-76
2021/10/22 05:58:36;;;;;;;8.57;3.13;;;8.70;82.70;;;;;;5103692;28;20050;-76
2021/10/22 06:01:05;;;;;;;13.43;4.45;;;8.70;81.70;;;;;;5103305;28;20110;-76
2021/10/22 06:03:31;;;;;;;10.00;4.05;;;8.70;82.50;;;;;;5100356;28;20019;-76
2021/10/22 06:05:57;;;;;;;10.50;4.50;;;8.60;83.00;;;;;;5097533;28;20063;-76
2021/10/22 06:08:23;;;;;;;6.80;3.50;;;8.60;83.40;;;;;;5115925;28;20020;-76
2021/10/22 06:10:57;;;;;;;17.48;5.55;;;8.70;83.50;;;;;;5098042;28;20055;-76
2021/10/22 06:13:23;;;;;;;7.28;4.00;;;8.70;83.80;;;;;;5115994;28;20015;-76
2021/10/22 06:15:51;;;;;;;5.13;3.85;;;8.70;83.90;;;;;;5097192;28;20024;-76
2021/10/22 06:18:19;;;;;;;5.78;3.30;;;8.80;84.00;;;;;;5115622;28;20432;-77
2021/10/22 06:21:03;;;;;;;7.78;4.32;;;8.80;83.70;;;;;;5080479;28;20028;-76
2021/10/22 06:26:16;;;;;;;8.68;4.07;;;8.60;83.90;;;;;;5100547;28;20077;-76
2021/10/22 06:28:41;;;;;;;9.02;4.47;;;8.50;84.20;;;;;;5115532;28;20389;-77
2021/10/22 06:31:07;;;;;;;12.05;4.88;;;8.50;84.10;;;;;;5097196;28;20039;-76
2021/10/22 06:33:33;;;;;;;9.10;4.15;;;8.30;85.90;;;;;;5114934;28;20026;-77
2021/10/22 06:35:59;;;;;;;9.20;5.00;;;8.20;85.60;;;;;;5115450;28;20412;-76
2021/10/22 06:38:25;;;;;;;14.73;5.20;;;8.20;85.70;;;;;;5115468;28;20380;-76
2021/10/22 06:40:54;;;;;;;9.73;4.65;;;8.30;85.30;;;;;;5114656;28;20039;-76
2021/10/22 06:43:24;;;;;;;9.77;4.53;;;8.40;85.80;;;;;;5115356;28;20054;-76
2021/10/22 06:45:51;;;;;;;8.73;4.53;;;8.40;85.50;;;;;;5115053;28;20088;-76
2021/10/22 06:48:18;;;;;;;6.47;3.80;;;8.40;84.70;;;;;;5097678;28;20030;-75
2021/10/22 06:50:45;;;;;;;9.57;4.20;;;8.40;84.40;;;;;;5096725;28;20031;-75
2021/10/22 06:53:12;;;;;;;8.20;3.72;;;8.40;84.00;;;;;;5080833;28;20062;-78
2021/10/22 06:55:40;;;;;;;3.92;2.65;;;8.40;82.80;;;;;;5114548;28;20359;-77
2021/10/22 06:58:11;;;;;;;3.63;2.40;;;8.40;83.10;;;;;;5114895;28;20099;-76
2021/10/22 07:00:36;;;;;;;10.48;2.97;;;8.30;82.70;;;;;;5096288;28;20059;-77
2021/10/22 07:03:03;;;;;;;8.48;2.95;;;8.20;82.70;;;;;;5079291;28;20514;-76
2021/10/22 07:07:57;;;;;;;2.97;2.20;;;7.90;82.20;;;;;;5096129;28;20030;-77
2021/10/22 07:10:23;;;;;;;4.97;2.45;;;7.80;82.40;;;;;;5080043;28;20072;-76
2021/10/22 07:12:51;;;;;;;5.88;2.50;;;7.70;83.00;;;;;;5115076;28;20099;-77
2021/10/22 07:15:17;;;;;;;3.75;2.47;;;7.80;83.40;;;;;;5113711;28;20027;-76
2021/10/22 07:17:45;;;;;;;5.55;2.53;;;7.70;83.50;;;;;;5115709;28;20030;-77
2021/10/22 07:20:13;;;;;;;13.77;3.03;;;7.60;83.10;;;;;;5116297;28;20456;-77
2021/10/22 07:22:48;;;;;;;4.47;2.40;;;7.70;83.40;;;;;;5116215;28;20028;-77
2021/10/22 07:25:19;;;;;;;4.82;1.80;;;7.80;83.60;;;;;;5115420;28;20049;-77
2021/10/22 07:27:47;;;;;;;5.88;2.45;;;8.00;83.60;;;;;;5096608;28;20188;-76
2021/10/22 07:30:22;;;;;;;7.78;2.70;;;8.20;82.30;;;;;;5097334;28;20039;-76
2021/10/22 07:32:50;;;;;;;5.35;3.28;;;8.30;81.00;;;;;;5079972;28;20028;-76
2021/10/22 07:35:17;;;;;;;6.63;2.60;;;8.40;80.50;;;;;;5097549;28;20050;-76
2021/10/22 07:37:44;;;;;;;6.97;2.22;;;8.50;80.70;;;;;;5097385;28;20027;-76
2021/10/22 07:40:13;;;;;;;9.48;2.80;;;8.50;79.60;;;;;;5096813;28;20031;-75
2021/10/22 07:42:40;;;;;;;7.82;2.90;;;8.60;79.20;;;;;;5113452;28;20108;-75
2021/10/22 07:45:08;;;;;;;6.32;2.20;;;8.60;79.00;;;;;;5094891;28;20023;-75
2021/10/22 07:47:35;;;;;;;9.50;3.53;;;8.70;79.10;;;;;;5113812;28;20488;-76
2021/10/22 07:50:06;;;;;;;7.00;3.70;;;8.60;78.90;;;;;;5113187;28;20475;-77
2021/10/22 07:52:40;;;;;;;5.78;3.08;;;8.80;79.10;;;;;;5113269;28;20019;-76
2021/10/22 07:55:06;;;;;;;10.02;2.85;;;8.80;78.60;;;;;;5113413;28;20038;-76
2021/10/22 07:57:33;;;;;;;9.18;2.65;;;8.90;77.80;;;;;;5094684;28;20480;-76
2021/10/22 08:00:00;;;;;;;7.28;3.75;;;9.00;77.20;;;;;;5113140;28;20088;-76
2021/10/22 08:02:26;;;;;;;9.35;3.85;;;9.00;78.40;;;;;;5094707;28;20026;-77
2021/10/22 08:04:58;;;;;;;8.90;3.92;;;8.90;77.40;;;;;;5094962;28;20031;-77
2021/10/22 08:07:31;;;;;;;6.95;3.30;;;9.00;75.60;;;;;;5094752;28;20019;-75
2021/10/22 08:09:59;;;;;;;11.90;3.10;;;9.10;75.90;;;;;;5094658;28;20032;-76
2021/10/22 08:12:25;;;;;;;7.43;3.40;;;9.00;74.10;;;;;;5094563;28;20042;-77
2021/10/22 08:14:59;;;;;;;8.05;2.60;;;8.90;76.70;;;;;;5113090;28;20031;-76
2021/10/22 08:17:26;;;;;;;9.70;2.65;;;9.00;74.70;;;;;;5094464;28;20479;-78
2021/10/22 08:20:05;;;;;;;10.90;2.30;;;9.00;74.70;;;;;;5094858;28;20118;-77
2021/10/22 08:22:31;;;;;;;11.40;2.63;;;9.10;74.30;;;;;;5079435;28;20054;-76
2021/10/22 08:25:02;;;;;;;9.02;2.45;;;8.90;73.20;;;;;;5094952;28;20030;-76
2021/10/22 08:27:34;;;;;;;11.98;3.33;;;8.80;74.60;;;;;;5113076;28;20043;-76
2021/10/22 08:30:00;;;;;;;8.45;2.83;;;8.70;74.50;;;;;;5112877;28;20506;-74
2021/10/22 08:32:34;;;;;;;10.07;2.60;;;8.60;75.00;;;;;;5094629;28;20024;-74
2021/10/22 08:35:02;;;;;;;14.73;3.20;;;8.80;74.80;;;;;;5094238;28;20062;-80
2021/10/22 08:37:28;;;;;;;16.10;2.42;;;9.30;82.50;;;;;;5113266;28;20024;-80
2021/10/22 08:39:58;;;;;;;8.13;1.77;;;9.80;81.10;;;;;;5116132;28;20031;-80
2021/10/22 08:42:25;;;;;;;7.88;2.08;;;9.80;71.40;;;;;;5117328;28;20031;-78
2021/10/22 08:44:56;;;;;;;11.20;2.50;;;10.10;71.70;;;;;;5081659;28;20386;-81
2021/10/22 08:47:30;;;;;;;10.45;2.00;;;10.40;70.40;;;;;;5099134;28;20038;-81
2021/10/22 08:49:59;;;;;;;8.05;2.03;;;10.20;71.50;;;;;;5098602;28;20032;-80
2021/10/22 08:52:26;;;;;;;12.40;2.60;;;10.60;68.90;;;;;;5116846;28;20110;-78
2021/10/22 08:54:54;;;;;;;11.63;2.08;;;10.90;67.70;;;;;;5116841;28;20076;-78
2021/10/22 08:57:22;;;;;;;7.13;1.58;;;11.20;67.70;;;;;;5098317;28;20024;-81
2021/10/22 08:59:48;;;;;;;10.05;2.13;;;11.70;65.60;;;;;;5116797;28;20019;-81
2021/10/22 09:02:14;;;;;;;9.77;2.10;;;12.00;61.40;;;;;;5081112;28;20092;-80
2021/10/22 09:04:46;;;;;;;7.63;1.73;;;12.10;62.50;;;;;;5115614;28;20036;-81
2021/10/22 09:07:17;;;;;;;5.10;1.50;;;12.50;61.60;;;;;;5116393;28;20217;-81
2021/10/22 09:10:04;;;;;;;7.47;1.63;;;12.60;58.60;;;;;;5116607;28;20023;-79
2021/10/22 09:12:52;;;;;;;13.68;2.53;;;12.60;57.80;;;;;;5116263;28;20575;-80
2021/10/22 09:15:24;;;;;;;7.88;2.22;;;12.80;58.80;;;;;;5116369;28;20028;-82
2021/10/22 09:17:52;;;;;;;8.38;2.03;;;13.10;56.20;;;;;;5097685;28;20023;-80
2021/10/22 09:20:22;;;;;;;7.40;1.38;;;13.30;53.90;;;;;;5115967;28;20031;-80
2021/10/22 09:22:51;;;;;;;15.32;2.30;;;13.30;52.70;;;;;;5098080;28;20027;-81
2021/10/22 09:25:21;;;;;;;12.23;2.42;;;12.80;52.00;;;;;;5117160;28;20024;-80
2021/10/22 09:27:57;;;;;;;9.95;2.33;;;12.40;53.20;;;;;;5098042;28;20019;-80
2021/10/22 09:30:42;;;;;;;;;;;11.80;56.40;;;;;;5116226;28;20055;-76
2021/10/22 09:33:10;;;;;;;15.40;2.97;;;11.60;56.50;;;;;;5115988;28;20363;-78
2021/10/22 09:36:00;;;;;;;15.77;2.35;;;11.10;57.50;;;;;;5115232;28;20048;-75
2021/10/22 09:38:31;;;;;;;15.45;2.40;;;10.90;58.20;;;;;;5114072;28;20035;-74
2021/10/22 09:40:59;;;;;;;17.45;1.95;;;10.50;57.40;;;;;;5114672;28;20027;-77
2021/10/22 09:43:33;;;;;;;10.65;2.22;;;10.80;58.40;;;;;;5095911;28;20031;-76
2021/10/22 09:46:21;;;;;;;17.45;2.95;;;11.00;56.20;;;;;;5114844;28;20527;-76
2021/10/22 09:48:50;;;;;;;13.30;2.05;;;11.10;55.80;;;;;;5114138;28;20472;-76
2021/10/22 09:51:34;;;;;;;8.65;2.28;;;11.20;54.80;;;;;;5114614;28;20028;-76
2021/10/22 09:54:09;;;;;;;12.25;2.10;;;11.10;54.60;;;;;;5114660;28;20130;-76
2021/10/22 09:56:37;;;;;;;12.65;2.63;;;11.10;53.10;;;;;;5114423;28;20613;-77
2021/10/22 09:59:06;;;;;;;13.80;2.15;;;10.90;54.60;;;;;;5096186;28;20039;-74
2021/10/22 10:01:38;;;;;;;15.38;2.65;;;10.90;54.70;;;;;;5113992;28;20024;-77
2021/10/22 10:04:07;;;;;;;16.60;3.15;;;11.00;55.60;;;;;;5113627;28;20035;-77
2021/10/22 10:06:35;;;;;;;19.98;2.88;;;11.30;54.90;;;;;;5113716;28;20498;-77
2021/10/22 10:09:09;;;;;;;10.80;2.63;;;11.40;53.70;;;;;;5094961;28;20028;-79
2021/10/22 10:11:40;;;;;;;10.27;2.45;;;11.70;50.60;;;;;;5114117;28;20036;-78
2021/10/22 10:14:07;;;;;;;15.88;2.53;;;11.60;50.10;;;;;;5113749;28;20497;-78
2021/10/22 10:16:34;;;;;;;12.32;2.20;;;11.70;46.80;;;;;;5063468;28;20034;-78
2021/10/22 10:19:24;;;;;;;9.40;1.60;;;12.00;46.80;;;;;;5113837;28;20016;-78
2021/10/22 10:21:53;;;;;;;9.43;1.73;;;11.80;48.00;;;;;;5113809;28;20081;-78
2021/10/22 10:24:48;;;;;;;9.82;1.90;;;11.90;48.30;;;;;;5095374;28;20360;-79
2021/10/22 10:27:24;;;;;;;9.88;2.45;;;12.00;48.10;;;;;;5111541;28;20042;-78
2021/10/22 10:29:59;;;;;;;11.73;2.03;;;11.90;48.40;;;;;;5079125;28;20055;-77
2021/10/22 10:32:28;;;;;;;8.77;2.25;;;11.70;47.10;;;;;;5113778;28;20028;-77
2021/10/22 10:34:56;;;;;;;10.55;2.28;;;11.90;47.80;;;;;;5051986;28;1727900;-77
2021/10/22 10:37:30;;;;;;;12.88;2.20;;;12.10;45.90;;;;;;5114348;28;20031;-77
2021/10/22 10:40:06;;;;;;;19.23;2.55;;;11.90;45.50;;;;;;5114316;28;20111;-79
2021/10/22 10:43:00;;;;;;;15.90;2.60;;;11.30;48.40;;;;;;5111707;28;20051;-77
2021/10/22 10:45:26;;;;;;;10.00;2.28;;;11.00;49.80;;;;;;5093606;28;20028;-78
2021/10/22 10:48:14;;;;;;;10.23;1.88;;;11.00;49.50;;;;;;5114016;28;20072;-79
2021/10/22 10:50:48;;;;;;;11.43;2.13;;;11.10;48.50;;;;;;5096080;28;20138;-79
2021/10/22 10:53:29;;;;;;;11.43;2.22;;;11.50;49.90;;;;;;5113639;28;20490;-79
2021/10/22 10:55:55;;;;;;;5.80;1.45;;;11.60;49.60;;;;;;5113771;28;20035;-78
2021/10/22 10:58:22;;;;;;;13.45;1.73;;;11.90;47.50;;;;;;5094728;28;20409;-78
2021/10/22 11:00:54;;;;;;;9.48;1.60;;;11.80;46.20;;;;;;5109791;28;20494;-79
2021/10/22 11:03:43;;;;;;;9.90;1.52;;;11.60;45.90;;;;;;5114002;28;20448;-78
2021/10/22 11:06:10;;;;;;;7.10;1.42;;;11.20;45.50;;;;;;5113321;28;20028;-78
2021/10/22 11:08:39;;;;;;;8.25;1.80;;;11.60;45.10;;;;;;5113704;28;20024;-77
2021/10/22 11:11:26;;;;;;;6.03;1.80;;;12.30;43.10;;;;;;5095193;28;20526;-77
2021/10/22 11:13:56;;;;;;;11.77;2.40;;;12.20;40.90;;;;;;5096369;28;20023;-77
2021/10/22 11:16:44;;;;;;;8.57;1.25;;;11.90;41.50;;;;;;5113727;28;20027;-76
2021/10/22 11:19:15;;;;;;;9.77;1.95;;;12.00;40.00;;;;;;5113805;28;20024;-77
2021/10/22 11:21:55;;;;;;;10.25;1.65;;;11.70;38.30;;;;;;5113543;28;20107;-78
2021/10/22 11:24:24;;;;;;;4.57;1.15;;;12.00;39.40;;;;;;5095614;28;20020;-77
2021/10/22 11:27:20;;;;;;;13.60;1.70;;;12.50;40.40;;;;;;5113378;28;20065;-77
2021/10/22 11:29:49;;;;;;;12.02;1.60;;;12.60;40.90;;;;;;5110144;28;20051;-77
2021/10/22 11:32:20;;;;;;;10.70;1.50;;;13.20;40.80;;;;;;5112722;28;20031;-76
2021/10/22 11:34:55;;;;;;;6.78;1.38;;;13.60;39.60;;;;;;5113434;28;20020;-76
2021/10/22 11:37:23;;;;;;;8.77;2.10;;;13.90;39.50;;;;;;5095590;28;20115;-76
2021/10/22 11:39:51;;;;;;;11.30;1.83;;;14.30;39.70;;;;;;5095593;28;20016;-76
2021/10/22 11:42:35;;;;;;;10.23;2.03;;;14.30;38.40;;;;;;5113740;28;20027;-76
2021/10/22 11:45:06;;;;;;;8.57;1.52;;;14.30;38.40;;;;;;5113696;28;20024;-77
2021/10/22 11:47:43;;;;;;;6.32;1.20;;;14.50;38.20;;;;;;5095487;28;20031;-76
2021/10/22 11:50:32;;;;;;;8.65;1.58;;;14.00;35.90;;;;;;5113397;28;20067;-77
2021/10/22 11:53:06;;;;;;;6.32;1.90;;;13.60;37.40;;;;;;5098182;28;20020;-76
2021/10/22 11:55:34;;;;;;;11.60;2.13;;;13.50;39.10;;;;;;5101058;28;20496;-76
2021/10/22 11:58:04;;;;;;;10.95;1.80;;;13.60;39.50;;;;;;5117629;28;20075;-76
2021/10/22 12:00:30;;;;;;;7.30;1.50;;;13.70;36.70;;;;;;5115255;28;20024;-76
2021/10/22 12:02:56;;;;;;;6.20;1.38;;;13.40;36.70;;;;;;5095535;28;20020;-76
2021/10/22 12:05:22;;;;;;;8.15;1.75;;;13.90;36.20;;;;;;5113637;28;20114;-76
2021/10/22 12:07:50;;;;;;;6.70;1.63;;;14.20;36.50;;;;;;5113306;28;20069;-77
2021/10/22 12:10:17;;;;;;;11.05;1.92;;;14.30;36.00;;;;;;5113459;28;20063;-76
2021/10/22 12:12:47;;;;;;;8.35;1.80;;;13.80;37.80;;;;;;5095206;28;20024;-76
2021/10/22 12:15:24;;;;;;;9.20;1.60;;;13.80;39.30;;;;;;5113460;28;20015;-76
2021/10/22 12:17:55;;;;;;;8.80;1.38;;;13.50;37.00;;;;;;5113257;28;20023;-76
2021/10/22 12:20:21;;;;;;;10.75;2.00;;;13.80;36.80;;;;;;5113058;28;20495;-77
2021/10/22 12:22:58;;;;;;;10.80;2.28;;;13.80;37.20;;;;;;5094632;28;20024;-76
2021/10/22 12:25:30;;;;;;;13.30;2.55;;;14.00;37.70;;;;;;5113078;28;20081;-76
2021/10/22 12:28:10;;;;;;;11.77;2.13;;;14.00;37.80;;;;;;5112686;28;20488;-76
2021/10/22 12:30:36;;;;;;;7.93;1.70;;;14.70;36.00;;;;;;5112909;28;20633;-76
2021/10/22 12:33:04;;;;;;;11.70;2.15;;;14.40;35.80;;;;;;5094613;28;20019;-79
2021/10/22 12:35:36;;;;;;;10.00;1.85;;;13.70;37.50;;;;;;5112834;28;20492;-76
2021/10/22 12:38:10;;;;;;;8.60;2.00;;;13.50;36.90;;;;;;5095782;28;20412;-78
2021/10/22 12:40:43;;;;;;;9.68;1.90;;;13.80;37.20;;;;;;5112872;28;20026;-77
2021/10/22 12:43:12;;;;;;;7.95;1.88;;;14.10;34.30;;;;;;5094981;28;20016;-79
2021/10/22 12:45:55;;;;;;;5.10;1.52;;;13.70;34.00;;;;;;5112328;28;20077;-80
2021/10/22 12:48:55;;;;;;;7.15;1.20;;;13.90;31.80;;;;;;5094536;28;20027;-79
2021/10/22 12:51:25;;;;;;;10.60;1.90;;;14.00;31.00;;;;;;5109395;28;20039;-80
2021/10/22 12:53:58;;;;;;;6.65;1.77;;;14.20;30.80;;;;;;5112938;28;20350;-80
2021/10/22 12:56:29;;;;;;;11.60;1.90;;;14.20;31.20;;;;;;5112674;28;20024;-78
2021/10/22 12:59:02;;;;;;;8.30;2.13;;;14.30;32.20;;;;;;5112690;28;20023;-78
2021/10/22 13:01:40;;;;;;;10.35;2.47;;;14.70;30.80;;;;;;5112698;28;20134;-78
2021/10/22 13:04:12;;;;;;;5.45;1.65;;;15.60;29.90;;;;;;5112019;28;20118;-77
2021/10/22 13:07:09;;;;;;;6.75;2.10;;;16.10;29.00;;;;;;5091014;28;20028;-77
2021/10/22 13:09:49;;;;;;;6.55;1.60;;;16.50;28.40;;;;;;5112669;28;20023;-79